Time;durP1;ratioP1;P1;durP2;ratioP2;P2;SDS_P1;SDS_P2;PMS_P1;PMS_P2;Temp;Humidity;BMP_temperature;BMP_pressure;BME280_temperature;BME280_humidity;BME280_pressure;Samples;Min_cycle;Max_cycle;Signal;HPM_P1;HPM_P2
2021/12/31 00:00:47;;;;;;;7.90;2.60;;;14.00;99.90;;;;;;5075487;28;20025;-78
2021/12/31 00:03:17;;;;;;;12.68;2.83;;;14.00;99.90;;;;;;5075628;28;20107;-78
2021/12/31 00:05:44;;;;;;;13.93;3.80;;;14.00;99.90;;;;;;5075835;28;20549;-78
2021/12/31 00:08:09;;;;;;;14.40;3.65;;;14.00;99.90;;;;;;5075524;28;20063;-79
2021/12/31 00:10:35;;;;;;;10.80;3.40;;;13.90;99.90;;;;;;5075365;28;20469;-78
2021/12/31 00:13:01;;;;;;;11.63;3.10;;;13.90;99.90;;;;;;5075379;28;20036;-78
2021/12/31 00:15:27;;;;;;;9.73;2.80;;;13.90;99.90;;;;;;5073814;28;20025;-78
2021/12/31 00:17:53;;;;;;;8.32;2.70;;;13.90;99.90;;;;;;5074202;28;20056;-78
2021/12/31 00:20:23;;;;;;;9.30;3.10;;;14.00;99.90;;;;;;5075449;28;20119;-78
2021/12/31 00:23:04;;;;;;;9.30;2.83;;;14.00;99.90;;;;;;5075196;28;20071;-77
2021/12/31 00:25:32;;;;;;;10.80;3.30;;;13.90;99.90;;;;;;5075391;28;20033;-78
2021/12/31 00:27:58;;;;;;;8.52;3.03;;;13.90;99.90;;;;;;5075707;28;20035;-78
2021/12/31 00:30:24;;;;;;;9.48;2.63;;;14.00;99.90;;;;;;5074938;28;20020;-78
2021/12/31 00:32:50;;;;;;;14.23;3.22;;;14.00;99.90;;;;;;5075120;28;20025;-77
2021/12/31 00:35:16;;;;;;;11.10;2.67;;;14.10;99.90;;;;;;5075180;28;20395;-78
2021/12/31 00:37:42;;;;;;;11.60;3.15;;;14.00;99.90;;;;;;5075033;28;20045;-78
2021/12/31 00:40:11;;;;;;;10.35;2.75;;;14.00;99.90;;;;;;5075150;28;20021;-78
2021/12/31 00:42:36;;;;;;;11.65;3.20;;;13.90;99.90;;;;;;5074929;28;20477;-77
2021/12/31 00:45:05;;;;;;;15.98;3.20;;;14.00;99.90;;;;;;5074615;28;20052;-78
2021/12/31 00:47:31;;;;;;;13.82;2.90;;;14.00;99.90;;;;;;5074677;28;20032;-77
2021/12/31 00:49:56;;;;;;;10.68;3.45;;;14.00;99.90;;;;;;5074953;28;20051;-77
2021/12/31 00:52:22;;;;;;;8.05;2.72;;;13.90;99.90;;;;;;5075003;28;20107;-77
2021/12/31 00:54:48;;;;;;;8.50;2.35;;;13.90;99.90;;;;;;5073568;28;20121;-78
2021/12/31 00:57:13;;;;;;;13.38;2.63;;;14.00;99.90;;;;;;5074793;28;20020;-78
2021/12/31 00:59:40;;;;;;;10.98;2.70;;;14.00;99.90;;;;;;5072990;28;20526;-78
2021/12/31 01:02:07;;;;;;;17.45;2.70;;;14.00;99.90;;;;;;5074724;28;20021;-77
2021/12/31 01:04:33;;;;;;;17.60;3.70;;;14.00;99.90;;;;;;5073132;28;20106;-78
2021/12/31 01:07:01;;;;;;;10.70;3.08;;;14.00;99.90;;;;;;5074370;28;20017;-78
2021/12/31 01:09:28;;;;;;;9.77;2.97;;;14.00;99.90;;;;;;5073199;28;20024;-77
2021/12/31 01:11:56;;;;;;;11.25;3.13;;;13.90;99.90;;;;;;5074546;28;20028;-78
2021/12/31 01:14:38;;;;;;;11.27;3.22;;;13.90;99.90;;;;;;5073056;28;20076;-78
2021/12/31 01:17:07;;;;;;;;;;;13.80;99.90;;;;;;5074983;28;20029;-78
2021/12/31 01:19:46;;;;;;;8.05;2.78;;;13.80;99.90;;;;;;5055927;28;19927;-77
2021/12/31 01:22:19;;;;;;;12.10;3.78;;;13.80;99.90;;;;;;5056270;28;20065;-77
2021/12/31 01:24:45;;;;;;;11.02;3.15;;;13.80;99.90;;;;;;5052770;28;20040;-77
2021/12/31 01:27:13;;;;;;;11.95;3.60;;;13.70;99.90;;;;;;5070712;28;20059;-78
2021/12/31 01:29:39;;;;;;;21.02;5.13;;;13.80;99.90;;;;;;5074071;28;20107;-78
2021/12/31 01:32:05;;;;;;;11.57;2.65;;;13.80;99.90;;;;;;5074283;28;20116;-77
2021/12/31 01:34:31;;;;;;;11.35;3.25;;;13.80;99.90;;;;;;5073818;28;20052;-77
2021/12/31 01:36:59;;;;;;;12.90;3.63;;;13.80;99.90;;;;;;5073867;28;20060;-78
2021/12/31 01:39:26;;;;;;;11.13;3.28;;;13.90;99.90;;;;;;5074018;28;20072;-78
2021/12/31 01:41:52;;;;;;;11.45;3.33;;;13.90;99.90;;;;;;5073457;28;20021;-79
2021/12/31 01:44:20;;;;;;;13.73;3.42;;;13.90;99.90;;;;;;5074003;28;20043;-78
2021/12/31 01:46:59;;;;;;;12.93;3.10;;;13.80;99.90;;;;;;5073503;28;20112;-77
2021/12/31 01:49:34;;;;;;;14.80;3.20;;;13.80;99.90;;;;;;5073806;28;20112;-78
2021/12/31 01:52:00;;;;;;;9.05;3.47;;;13.80;99.90;;;;;;5073588;28;20049;-78
2021/12/31 01:54:26;;;;;;;12.77;3.08;;;13.80;99.90;;;;;;5073761;28;20086;-79
2021/12/31 01:56:53;;;;;;;9.85;2.88;;;13.80;99.90;;;;;;5072093;28;20028;-78
2021/12/31 01:59:19;;;;;;;15.85;3.35;;;13.80;99.90;;;;;;5073771;28;20102;-78
2021/12/31 02:01:45;;;;;;;9.00;3.35;;;13.80;99.90;;;;;;5073211;28;20021;-78
2021/12/31 02:04:11;;;;;;;9.18;3.33;;;13.70;99.90;;;;;;5073364;28;20028;-79
2021/12/31 02:06:37;;;;;;;15.40;2.88;;;13.70;99.90;;;;;;5073279;28;20444;-78
2021/12/31 02:09:05;;;;;;;13.05;3.40;;;13.70;99.90;;;;;;5073383;28;20028;-78
2021/12/31 02:11:31;;;;;;;11.00;3.13;;;13.60;99.90;;;;;;5073104;28;20103;-78
2021/12/31 02:13:57;;;;;;;10.90;3.33;;;13.60;99.90;;;;;;5055419;28;20464;-79
2021/12/31 02:16:24;;;;;;;8.63;3.05;;;13.70;99.90;;;;;;5073114;28;20031;-78
2021/12/31 02:18:50;;;;;;;14.23;3.72;;;13.70;99.90;;;;;;5071878;28;20048;-77
2021/12/31 02:21:16;;;;;;;12.73;3.13;;;13.80;99.90;;;;;;5073172;28;20040;-78
2021/12/31 02:23:47;;;;;;;10.60;3.05;;;13.80;99.90;;;;;;5073063;28;20491;-78
2021/12/31 02:26:13;;;;;;;10.27;3.28;;;13.80;99.90;;;;;;5072667;28;20032;-77
2021/12/31 02:28:40;;;;;;;13.63;3.45;;;13.70;99.90;;;;;;5072990;28;20461;-76
2021/12/31 02:31:06;;;;;;;14.57;3.97;;;13.70;99.90;;;;;;5072951;28;20116;-78
2021/12/31 02:33:32;;;;;;;15.23;3.80;;;13.70;99.90;;;;;;5073164;28;20082;-78
2021/12/31 02:36:00;;;;;;;10.45;3.13;;;13.80;99.90;;;;;;5071584;28;20024;-79
2021/12/31 02:38:26;;;;;;;12.52;3.22;;;13.70;99.90;;;;;;5073004;28;20052;-78
2021/12/31 02:40:52;;;;;;;14.48;3.40;;;13.80;99.90;;;;;;5072621;28;20029;-78
2021/12/31 02:43:17;;;;;;;8.73;3.63;;;13.70;99.90;;;;;;5072923;28;20095;-77
2021/12/31 02:45:43;;;;;;;14.80;3.85;;;13.60;99.90;;;;;;5072792;28;20456;-77
2021/12/31 02:48:10;;;;;;;13.93;3.78;;;13.60;99.90;;;;;;5072875;28;20020;-78
2021/12/31 02:50:40;;;;;;;8.98;4.15;;;13.50;99.90;;;;;;5073256;28;20041;-78
2021/12/31 02:53:14;;;;;;;9.27;3.28;;;13.50;99.90;;;;;;5071267;28;20036;-78
2021/12/31 02:55:42;;;;;;;14.95;3.67;;;13.50;99.90;;;;;;5072502;28;20029;-78
2021/12/31 02:58:09;;;;;;;10.00;3.67;;;13.50;99.90;;;;;;5071329;28;20047;-78
2021/12/31 03:00:38;;;;;;;10.00;3.05;;;13.60;99.90;;;;;;5071573;28;20389;-78
2021/12/31 03:03:06;;;;;;;13.18;3.72;;;13.50;99.90;;;;;;5072628;28;20021;-78
2021/12/31 03:05:35;;;;;;;10.73;3.33;;;13.60;99.90;;;;;;5072665;28;20029;-78
2021/12/31 03:08:03;;;;;;;16.58;4.30;;;13.50;99.90;;;;;;5071460;28;20036;-79
2021/12/31 03:10:30;;;;;;;16.90;4.25;;;13.50;99.90;;;;;;5072258;28;20127;-78
2021/12/31 03:12:57;;;;;;;12.15;3.40;;;13.50;99.90;;;;;;5072679;28;20040;-78
2021/12/31 03:15:25;;;;;;;15.80;4.13;;;13.50;99.90;;;;;;5072727;28;20043;-78
2021/12/31 03:17:52;;;;;;;11.32;4.15;;;13.40;99.90;;;;;;5075243;28;20104;-79
2021/12/31 03:20:35;;;;;;;17.55;5.13;;;13.40;99.90;;;;;;5076649;28;20041;-79
2021/12/31 03:23:05;;;;;;;11.77;4.00;;;13.40;99.90;;;;;;5076111;28;20039;-74
2021/12/31 03:25:31;;;;;;;11.70;3.83;;;13.50;99.90;;;;;;5076520;28;20086;-77
2021/12/31 03:27:57;;;;;;;13.13;4.85;;;13.40;99.90;;;;;;5076289;28;20361;-77
2021/12/31 03:30:23;;;;;;;17.17;4.35;;;13.30;99.90;;;;;;5076619;28;20119;-77
2021/12/31 03:32:49;;;;;;;13.05;3.53;;;13.30;99.90;;;;;;5076287;28;20024;-77
2021/12/31 03:35:15;;;;;;;17.00;3.85;;;13.20;99.90;;;;;;5076254;28;20396;-78
2021/12/31 03:37:40;;;;;;;15.45;4.57;;;13.10;99.90;;;;;;5075822;28;20029;-77
2021/12/31 03:40:06;;;;;;;22.42;4.35;;;13.10;99.90;;;;;;5076330;28;20044;-77
2021/12/31 03:42:32;;;;;;;11.10;4.43;;;13.20;99.90;;;;;;5076188;28;20086;-78
2021/12/31 03:44:58;;;;;;;12.18;4.72;;;13.10;99.90;;;;;;5076060;28;20037;-78
2021/12/31 03:47:24;;;;;;;15.80;4.47;;;13.00;99.90;;;;;;5075841;28;20055;-77
2021/12/31 03:49:49;;;;;;;14.35;5.00;;;13.10;99.90;;;;;;5076393;28;20040;-77
2021/12/31 03:52:15;;;;;;;8.70;4.15;;;13.10;99.90;;;;;;5074493;28;20036;-77
2021/12/31 03:54:41;;;;;;;11.88;4.70;;;12.90;99.90;;;;;;5075969;28;20035;-77
2021/12/31 03:57:07;;;;;;;9.68;4.28;;;12.90;99.90;;;;;;5075830;28;20040;-77
2021/12/31 03:59:32;;;;;;;10.32;4.30;;;12.90;99.90;;;;;;5075699;28;20029;-78
2021/12/31 04:01:58;;;;;;;17.38;4.60;;;12.90;99.90;;;;;;5075757;28;20052;-78
2021/12/31 04:04:24;;;;;;;12.70;4.20;;;12.90;99.90;;;;;;5075839;28;20453;-78
2021/12/31 04:06:50;;;;;;;14.80;4.22;;;12.90;99.90;;;;;;5075309;28;20143;-75
2021/12/31 04:09:15;;;;;;;12.38;4.40;;;12.90;99.90;;;;;;5075636;28;20405;-77
2021/12/31 04:11:41;;;;;;;11.73;4.18;;;12.90;99.90;;;;;;5075643;28;20036;-78
2021/12/31 04:14:07;;;;;;;8.43;3.60;;;12.80;99.90;;;;;;5075416;28;20093;-77
2021/12/31 04:16:32;;;;;;;14.48;4.60;;;12.70;99.90;;;;;;5075611;28;20036;-77
2021/12/31 04:18:58;;;;;;;12.77;4.10;;;12.70;99.90;;;;;;5075225;28;20032;-78
2021/12/31 04:21:24;;;;;;;8.85;4.28;;;12.70;99.90;;;;;;5075144;28;20501;-74
2021/12/31 04:24:15;;;;;;;13.15;5.30;;;12.70;99.90;;;;;;5074175;28;20043;-78
2021/12/31 04:26:39;;;;;;;15.98;4.88;;;12.70;99.90;;;;;;5075057;28;20037;-78
2021/12/31 04:29:04;;;;;;;8.50;3.70;;;12.70;99.90;;;;;;5075017;28;20090;-77
2021/12/31 04:31:30;;;;;;;16.40;5.03;;;12.60;99.90;;;;;;5075422;28;20017;-78
2021/12/31 04:33:56;;;;;;;18.70;4.75;;;12.50;99.90;;;;;;5075125;28;20555;-78
2021/12/31 04:36:21;;;;;;;11.45;4.38;;;12.50;99.90;;;;;;5074975;28;20028;-78
2021/12/31 04:38:47;;;;;;;12.52;4.20;;;12.60;99.90;;;;;;5075096;28;20032;-78
2021/12/31 04:41:13;;;;;;;10.20;4.45;;;12.50;99.90;;;;;;5075245;28;20090;-78
2021/12/31 04:43:38;;;;;;;9.85;4.18;;;12.40;99.90;;;;;;5073906;28;20035;-79
2021/12/31 04:46:04;;;;;;;12.93;4.30;;;12.50;99.90;;;;;;5074929;28;20154;-79
2021/12/31 04:48:30;;;;;;;13.00;4.10;;;12.40;99.90;;;;;;5074749;28;20082;-78
2021/12/31 04:50:55;;;;;;;17.13;4.32;;;12.40;99.90;;;;;;5074494;28;20032;-75
2021/12/31 04:53:21;;;;;;;10.23;3.78;;;12.30;99.90;;;;;;5075023;28;20036;-76
2021/12/31 04:55:47;;;;;;;10.32;4.22;;;12.40;99.90;;;;;;5074794;28;20510;-78
2021/12/31 04:58:13;;;;;;;13.82;3.90;;;12.30;99.90;;;;;;5073361;28;20468;-78
2021/12/31 05:00:39;;;;;;;12.20;4.40;;;12.30;99.90;;;;;;5074541;28;20024;-78
2021/12/31 05:03:07;;;;;;;12.43;3.63;;;12.30;99.90;;;;;;5074353;28;20028;-78
2021/12/31 05:05:32;;;;;;;15.02;4.22;;;12.20;99.90;;;;;;5074269;28;20020;-78
2021/12/31 05:07:58;;;;;;;10.07;4.40;;;12.20;99.90;;;;;;5074514;28;20464;-78
2021/12/31 05:10:24;;;;;;;15.60;4.43;;;12.20;99.90;;;;;;5074287;28;20032;-78
2021/12/31 05:12:55;;;;;;;10.85;3.88;;;12.20;99.90;;;;;;5074533;28;20028;-78
2021/12/31 05:15:26;;;;;;;17.60;4.57;;;12.30;99.90;;;;;;5074329;28;20385;-78
2021/12/31 05:17:52;;;;;;;16.48;4.10;;;12.30;99.90;;;;;;5074466;28;20439;-78
2021/12/31 05:20:18;;;;;;;14.45;3.92;;;12.30;99.90;;;;;;5073608;28;20063;-78
2021/12/31 05:22:44;;;;;;;15.80;4.90;;;12.20;99.90;;;;;;5074463;28;20031;-78
2021/12/31 05:25:10;;;;;;;13.38;4.15;;;12.20;99.90;;;;;;5073946;28;20412;-78
2021/12/31 05:27:37;;;;;;;9.15;4.15;;;12.20;99.90;;;;;;5074492;28;20036;-79
2021/12/31 05:30:04;;;;;;;10.73;4.25;;;12.30;99.90;;;;;;5073908;28;20047;-78
2021/12/31 05:32:30;;;;;;;10.32;3.72;;;12.30;99.90;;;;;;5074136;28;20454;-77
2021/12/31 05:34:56;;;;;;;12.57;4.53;;;12.30;99.90;;;;;;5073825;28;20067;-78
2021/12/31 05:37:22;;;;;;;10.63;4.05;;;12.30;99.90;;;;;;5074031;28;20064;-78
2021/12/31 05:39:47;;;;;;;11.73;3.50;;;12.30;99.90;;;;;;5073316;28;20102;-78
2021/12/31 05:42:13;;;;;;;14.52;4.63;;;12.40;99.90;;;;;;5074005;28;20536;-79
2021/12/31 05:44:40;;;;;;;12.80;4.80;;;12.30;99.90;;;;;;5073852;28;20461;-78
2021/12/31 05:47:06;;;;;;;14.68;4.00;;;12.20;99.90;;;;;;5073717;28;20016;-78
2021/12/31 05:49:31;;;;;;;10.13;4.53;;;12.20;99.90;;;;;;5073473;28;20039;-78
2021/12/31 05:51:57;;;;;;;11.63;4.47;;;12.30;99.90;;;;;;5073595;28;20041;-78
2021/12/31 05:54:23;;;;;;;8.82;3.65;;;12.20;99.90;;;;;;5073744;28;20063;-78
2021/12/31 05:56:49;;;;;;;9.75;3.70;;;12.20;99.90;;;;;;5073504;28;20111;-78
2021/12/31 05:59:14;;;;;;;9.77;4.40;;;12.30;99.90;;;;;;5073601;28;20557;-78
2021/12/31 06:01:40;;;;;;;10.98;4.05;;;12.30;99.90;;;;;;5073525;28;20484;-78
2021/12/31 06:04:06;;;;;;;7.93;3.10;;;12.30;99.90;;;;;;5073108;28;20024;-78
2021/12/31 06:06:32;;;;;;;12.50;4.32;;;12.30;99.90;;;;;;5073344;28;20021;-78
2021/12/31 06:08:58;;;;;;;9.90;3.95;;;12.30;99.90;;;;;;5073507;28;20027;-78
2021/12/31 06:11:24;;;;;;;13.73;3.60;;;12.30;99.90;;;;;;5073260;28;20459;-78
2021/12/31 06:14:01;;;;;;;13.30;3.33;;;12.30;99.90;;;;;;5073347;28;20074;-79
2021/12/31 06:16:28;;;;;;;8.63;2.58;;;12.30;99.90;;;;;;5073135;28;20039;-77
2021/12/31 06:18:54;;;;;;;7.03;3.10;;;12.20;99.90;;;;;;5072657;28;20048;-77
2021/12/31 06:21:20;;;;;;;10.63;3.30;;;12.30;99.90;;;;;;5073120;28;20125;-78
2021/12/31 06:23:46;;;;;;;8.40;3.40;;;12.30;99.90;;;;;;5073308;28;20028;-78
2021/12/31 06:26:13;;;;;;;7.32;2.63;;;12.30;99.90;;;;;;5071538;28;20040;-78
2021/12/31 06:28:39;;;;;;;10.05;3.05;;;12.30;99.90;;;;;;5071660;28;20038;-79
2021/12/31 06:31:05;;;;;;;7.78;2.72;;;12.40;99.90;;;;;;5071793;28;20103;-78
2021/12/31 06:33:30;;;;;;;11.95;3.05;;;12.40;99.90;;;;;;5072734;28;20385;-78
2021/12/31 06:35:56;;;;;;;6.55;2.63;;;12.40;99.90;;;;;;5072832;28;20021;-78
2021/12/31 06:38:22;;;;;;;10.93;3.60;;;12.40;99.90;;;;;;5073080;28;20045;-77
2021/12/31 06:40:48;;;;;;;11.73;2.55;;;12.30;99.90;;;;;;5071843;28;20099;-79
2021/12/31 06:43:13;;;;;;;7.90;2.95;;;12.30;99.90;;;;;;5070512;28;20035;-79
2021/12/31 06:45:39;;;;;;;4.63;2.78;;;12.30;99.90;;;;;;5061764;28;20067;-77
2021/12/31 06:48:05;;;;;;;6.88;2.83;;;12.30;99.90;;;;;;5052667;28;20017;-77
2021/12/31 06:50:31;;;;;;;8.55;2.70;;;12.30;99.90;;;;;;5053266;28;20124;-77
2021/12/31 06:52:56;;;;;;;11.13;3.75;;;12.30;99.90;;;;;;5052201;28;20041;-76
2021/12/31 06:55:22;;;;;;;5.88;2.70;;;12.40;99.90;;;;;;5052586;28;20108;-77
2021/12/31 06:57:49;;;;;;;8.23;3.20;;;12.40;99.90;;;;;;5052579;28;20021;-76
2021/12/31 07:00:17;;;;;;;7.68;3.38;;;12.30;99.90;;;;;;5052735;28;20063;-77
2021/12/31 07:02:42;;;;;;;12.13;3.15;;;12.30;99.90;;;;;;5052601;28;20025;-76
2021/12/31 07:05:08;;;;;;;10.70;3.20;;;12.30;99.90;;;;;;5052675;28;20086;-77
2021/12/31 07:07:34;;;;;;;7.20;2.67;;;12.30;99.90;;;;;;5052363;28;20158;-78
2021/12/31 07:09:59;;;;;;;9.02;2.92;;;12.30;99.90;;;;;;5067353;28;20028;-79
2021/12/31 07:12:25;;;;;;;6.72;2.80;;;12.20;99.90;;;;;;5072532;28;20035;-79
2021/12/31 07:14:52;;;;;;;7.43;3.00;;;12.20;99.90;;;;;;5071522;28;20041;-78
2021/12/31 07:17:17;;;;;;;15.35;3.05;;;12.20;99.90;;;;;;5072586;28;20107;-78
2021/12/31 07:19:43;;;;;;;8.88;2.92;;;12.30;99.90;;;;;;5072270;28;20167;-78
2021/12/31 07:22:10;;;;;;;6.45;2.83;;;12.20;99.90;;;;;;5072467;28;20024;-78
2021/12/31 07:24:36;;;;;;;6.75;2.42;;;12.20;99.90;;;;;;5072388;28;20068;-77
2021/12/31 07:27:02;;;;;;;7.32;2.72;;;12.30;99.90;;;;;;5070875;28;20118;-79
2021/12/31 07:29:27;;;;;;;16.45;3.67;;;12.10;99.90;;;;;;5072515;28;20024;-79
2021/12/31 07:31:53;;;;;;;11.57;3.10;;;12.10;99.90;;;;;;5072208;28;20031;-76
2021/12/31 07:34:19;;;;;;;8.18;2.90;;;12.20;99.90;;;;;;5072290;28;20528;-79
2021/12/31 07:36:44;;;;;;;11.32;3.65;;;12.30;99.90;;;;;;5072343;28;20044;-79
2021/12/31 07:39:12;;;;;;;7.40;3.10;;;12.20;99.90;;;;;;5071000;28;20036;-79
2021/12/31 07:41:38;;;;;;;11.60;3.30;;;12.20;99.90;;;;;;5072430;28;20024;-79
2021/12/31 07:44:06;;;;;;;9.77;3.60;;;12.20;99.90;;;;;;5072011;28;20033;-79
2021/12/31 07:46:32;;;;;;;10.20;3.33;;;12.10;99.90;;;;;;5072295;28;20044;-78
2021/12/31 07:48:58;;;;;;;6.82;3.90;;;12.20;99.90;;;;;;5072302;28;20107;-79
2021/12/31 07:51:24;;;;;;;6.97;3.55;;;12.10;99.90;;;;;;5072136;28;20063;-78
2021/12/31 07:53:49;;;;;;;7.70;3.25;;;12.00;99.90;;;;;;5072138;28;20056;-78
2021/12/31 07:56:18;;;;;;;10.25;3.85;;;12.00;99.90;;;;;;5072278;28;20111;-76
2021/12/31 07:58:46;;;;;;;11.13;4.53;;;12.00;99.90;;;;;;5071620;28;20033;-79
2021/12/31 08:01:12;;;;;;;8.65;4.60;;;11.90;99.90;;;;;;5072372;28;20025;-78
2021/12/31 08:03:38;;;;;;;15.07;3.83;;;11.90;99.90;;;;;;5074125;28;20032;-77
2021/12/31 08:06:03;;;;;;;10.25;3.90;;;11.80;99.90;;;;;;5075650;28;20389;-78
2021/12/31 08:08:29;;;;;;;13.60;4.10;;;11.90;99.90;;;;;;5075498;28;20499;-77
2021/12/31 08:10:55;;;;;;;11.85;3.55;;;11.90;99.90;;;;;;5075737;28;20020;-78
2021/12/31 08:13:21;;;;;;;10.43;4.18;;;11.90;99.90;;;;;;5075264;28;20086;-78
2021/12/31 08:15:47;;;;;;;11.93;5.05;;;12.00;99.90;;;;;;5075643;28;20028;-77
2021/12/31 08:18:13;;;;;;;7.43;4.05;;;11.90;99.90;;;;;;5075670;28;20363;-79
2021/12/31 08:20:39;;;;;;;14.77;4.55;;;12.00;99.90;;;;;;5075477;28;20396;-78
2021/12/31 08:23:06;;;;;;;9.00;3.97;;;12.10;99.90;;;;;;5076611;28;20473;-78
2021/12/31 08:25:33;;;;;;;12.73;4.93;;;12.10;99.90;;;;;;5074191;28;20032;-78
2021/12/31 08:27:58;;;;;;;9.07;4.03;;;12.10;99.90;;;;;;5075181;28;20025;-78
2021/12/31 08:30:24;;;;;;;7.60;3.78;;;12.10;99.90;;;;;;5075139;28;20032;-79
2021/12/31 08:32:49;;;;;;;8.70;3.60;;;12.00;99.90;;;;;;5075370;28;20031;-78
2021/12/31 08:35:15;;;;;;;8.27;2.92;;;12.00;99.90;;;;;;5057286;28;20036;-79
2021/12/31 08:37:41;;;;;;;10.80;4.32;;;12.00;99.90;;;;;;5075051;28;20028;-78
2021/12/31 08:40:07;;;;;;;7.03;3.65;;;12.10;99.90;;;;;;5075205;28;20037;-78
2021/12/31 08:42:33;;;;;;;7.80;3.58;;;12.10;99.90;;;;;;5073636;28;20541;-79
2021/12/31 08:44:58;;;;;;;8.93;3.92;;;12.20;99.90;;;;;;5074922;28;20028;-79
2021/12/31 08:47:24;;;;;;;5.32;3.33;;;12.20;99.90;;;;;;5075086;28;20078;-79
2021/12/31 08:49:50;;;;;;;10.80;3.97;;;12.10;99.90;;;;;;5073621;28;20020;-79
2021/12/31 08:52:16;;;;;;;6.30;3.80;;;12.20;99.90;;;;;;5075103;28;20505;-79
2021/12/31 08:54:41;;;;;;;9.07;3.22;;;12.20;99.90;;;;;;5074867;28;20461;-79
2021/12/31 08:57:07;;;;;;;7.35;3.58;;;12.20;99.90;;;;;;5074626;28;20278;-79
2021/12/31 08:59:32;;;;;;;6.25;3.22;;;12.20;99.90;;;;;;5074486;28;20119;-78
2021/12/31 09:01:58;;;;;;;7.00;2.90;;;12.20;99.90;;;;;;5074852;28;20025;-79
2021/12/31 09:04:24;;;;;;;7.55;3.00;;;12.20;99.90;;;;;;5074631;28;20040;-78
2021/12/31 09:06:50;;;;;;;5.85;3.35;;;12.10;99.90;;;;;;5073284;28;20021;-78
2021/12/31 09:09:16;;;;;;;8.85;3.33;;;12.00;99.90;;;;;;5074374;28;20027;-79
2021/12/31 09:11:43;;;;;;;7.22;3.10;;;12.10;99.90;;;;;;5074260;28;20024;-78
2021/12/31 09:14:10;;;;;;;8.98;3.60;;;12.10;99.90;;;;;;5073978;28;20369;-79
2021/12/31 09:16:36;;;;;;;6.05;3.42;;;12.30;99.90;;;;;;5074168;28;20111;-76
2021/12/31 09:19:02;;;;;;;5.25;3.30;;;12.20;99.90;;;;;;5074315;28;20475;-78
2021/12/31 09:21:28;;;;;;;13.85;3.65;;;12.30;99.90;;;;;;5074099;28;20036;-79
2021/12/31 09:23:53;;;;;;;6.35;3.10;;;12.30;99.90;;;;;;5074496;28;20103;-79
2021/12/31 09:26:19;;;;;;;7.07;3.08;;;12.40;99.90;;;;;;5073543;28;20472;-78
2021/12/31 09:28:45;;;;;;;13.52;3.50;;;12.30;99.90;;;;;;5074189;28;20500;-78
2021/12/31 09:31:11;;;;;;;10.60;3.20;;;12.30;99.90;;;;;;5074130;28;20131;-78
2021/12/31 09:33:38;;;;;;;11.63;3.53;;;12.40;99.90;;;;;;5073940;28;20073;-79
2021/12/31 09:36:03;;;;;;;13.70;3.92;;;12.50;99.90;;;;;;5073991;28;20102;-80
2021/12/31 09:38:29;;;;;;;12.23;3.28;;;12.40;99.90;;;;;;5056004;28;20492;-77
2021/12/31 09:40:55;;;;;;;13.27;3.47;;;12.50;99.90;;;;;;5073647;28;20110;-77
2021/12/31 09:43:21;;;;;;;9.82;3.42;;;12.50;99.90;;;;;;5073992;28;20020;-77
2021/12/31 09:45:50;;;;;;;5.63;2.70;;;12.40;99.90;;;;;;5072293;28;20131;-78
2021/12/31 09:48:19;;;;;;;10.48;3.20;;;12.50;99.90;;;;;;5072469;28;20043;-78
2021/12/31 09:50:47;;;;;;;7.13;4.15;;;12.40;99.90;;;;;;5073682;28;20025;-78
2021/12/31 09:53:14;;;;;;;8.23;3.30;;;12.50;99.90;;;;;;5073819;28;20036;-78
2021/12/31 09:55:48;;;;;;;8.80;2.90;;;12.40;99.90;;;;;;5073155;28;20048;-78
2021/12/31 09:58:16;;;;;;;8.10;3.55;;;12.50;99.90;;;;;;5073674;28;20115;-77
2021/12/31 10:00:44;;;;;;;5.47;3.00;;;12.60;99.90;;;;;;5073399;28;20021;-78
2021/12/31 10:03:22;;;;;;;5.28;2.63;;;12.70;99.90;;;;;;5073769;28;20504;-77
2021/12/31 10:05:51;;;;;;;4.88;2.20;;;12.70;99.90;;;;;;5073325;28;20036;-77
2021/12/31 10:08:21;;;;;;;9.73;3.25;;;12.60;99.90;;;;;;5071930;28;20067;-78
2021/12/31 10:11:09;;;;;;;6.05;2.83;;;12.70;99.90;;;;;;5073109;28;20028;-78
2021/12/31 10:13:37;;;;;;;7.78;2.47;;;12.80;99.90;;;;;;5073149;28;20119;-77
2021/12/31 10:16:04;;;;;;;6.18;2.97;;;12.80;99.90;;;;;;5073226;28;20399;-78
2021/12/31 10:18:32;;;;;;;7.00;2.72;;;12.80;99.90;;;;;;5073192;28;20045;-77
2021/12/31 10:20:58;;;;;;;10.13;2.72;;;12.80;99.90;;;;;;5073008;28;20114;-78
2021/12/31 10:23:24;;;;;;;5.25;2.63;;;12.90;99.90;;;;;;5073193;28;20031;-77
2021/12/31 10:25:50;;;;;;;5.97;3.08;;;12.90;99.90;;;;;;5072384;28;20461;-77
2021/12/31 10:28:17;;;;;;;7.07;2.97;;;12.80;99.90;;;;;;5073240;28;20070;-77
2021/12/31 10:30:44;;;;;;;10.63;3.00;;;12.90;99.90;;;;;;5073269;28;20533;-77
2021/12/31 10:33:10;;;;;;;6.15;3.42;;;12.90;99.90;;;;;;5072842;28;20357;-77
2021/12/31 10:35:43;;;;;;;12.57;3.15;;;12.80;99.90;;;;;;5072877;28;20036;-77
2021/12/31 10:38:12;;;;;;;8.10;2.85;;;12.80;99.90;;;;;;5072654;28;20063;-77
2021/12/31 10:40:45;;;;;;;10.98;3.15;;;12.80;99.90;;;;;;5073057;28;20032;-77
2021/12/31 10:43:21;;;;;;;5.18;2.88;;;12.90;99.90;;;;;;5072861;28;20071;-77
2021/12/31 10:46:09;;;;;;;4.68;3.00;;;13.00;99.90;;;;;;5072661;28;20041;-76
2021/12/31 10:48:38;;;;;;;8.20;3.15;;;13.20;99.90;;;;;;5072691;28;20070;-76
2021/12/31 10:51:04;;;;;;;7.55;3.08;;;12.90;99.90;;;;;;5071774;28;20493;-78
2021/12/31 10:53:33;;;;;;;9.52;3.40;;;12.90;99.90;;;;;;5071269;28;20097;-77
2021/12/31 10:56:10;;;;;;;6.28;3.20;;;13.00;99.90;;;;;;5072915;28;20036;-77
2021/12/31 10:58:41;;;;;;;5.20;3.38;;;13.00;99.90;;;;;;5072449;28;20109;-77
2021/12/31 11:01:15;;;;;;;10.20;3.33;;;13.10;99.90;;;;;;5072314;28;20079;-77
2021/12/31 11:03:42;;;;;;;11.45;3.78;;;13.00;99.90;;;;;;5072556;28;20025;-78
2021/12/31 11:06:12;;;;;;;9.18;3.50;;;13.00;99.90;;;;;;5073113;28;20056;-77
2021/12/31 11:08:42;;;;;;;7.07;2.88;;;13.00;99.90;;;;;;5072204;28;20028;-77
2021/12/31 11:11:08;;;;;;;5.72;3.05;;;13.10;99.90;;;;;;5072803;28;20041;-77
2021/12/31 11:13:34;;;;;;;9.93;3.22;;;12.90;99.90;;;;;;5072744;28;20017;-77
2021/12/31 11:16:00;;;;;;;10.13;3.30;;;13.00;99.90;;;;;;5072534;28;20527;-77
2021/12/31 11:18:26;;;;;;;6.63;3.38;;;13.00;99.90;;;;;;5072282;28;20554;-77
2021/12/31 11:21:00;;;;;;;11.38;3.85;;;13.10;99.90;;;;;;5072255;28;20036;-77
2021/12/31 11:23:28;;;;;;;7.28;3.05;;;13.00;99.90;;;;;;5072226;28;20033;-77
2021/12/31 11:26:00;;;;;;;7.25;3.30;;;13.10;99.90;;;;;;5071077;28;20058;-77
2021/12/31 11:28:33;;;;;;;;;;;13.10;99.90;;;;;;5072567;28;20037;-77
2021/12/31 11:31:20;;;;;;;7.75;2.95;;;13.30;99.90;;;;;;5072376;28;20321;-77
2021/12/31 11:33:59;;;;;;;9.68;2.70;;;13.40;99.90;;;;;;5072277;28;20094;-78
2021/12/31 11:36:54;;;;;;;8.10;3.13;;;13.40;99.90;;;;;;5072252;28;20078;-76
2021/12/31 11:39:26;;;;;;;5.82;2.97;;;13.50;99.90;;;;;;5075817;28;20036;-77
2021/12/31 11:41:55;;;;;;;6.88;2.65;;;13.50;99.90;;;;;;5076128;28;20039;-77
2021/12/31 11:44:23;;;;;;;5.45;2.45;;;14.10;99.90;;;;;;5074855;28;20029;-77
2021/12/31 11:46:50;;;;;;;5.32;2.50;;;15.10;99.90;;;;;;5076167;28;20082;-77
2021/12/31 11:49:23;;;;;;;6.43;2.33;;;15.20;99.90;;;;;;5076139;28;20103;-77
2021/12/31 11:52:02;;;;;;;5.13;2.63;;;15.10;99.90;;;;;;5075609;28;20028;-77
2021/12/31 11:54:29;;;;;;;4.32;2.33;;;14.90;99.90;;;;;;5075903;28;20064;-77
2021/12/31 11:57:03;;;;;;;4.05;2.47;;;14.50;99.90;;;;;;5075901;28;20044;-75
2021/12/31 11:59:35;;;;;;;9.02;3.03;;;14.30;99.90;;;;;;5074414;28;20492;-77
2021/12/31 12:02:22;;;;;;;6.07;2.55;;;14.70;99.90;;;;;;5075754;28;20108;-78
2021/12/31 12:04:59;;;;;;;7.65;2.70;;;15.40;99.90;;;;;;5075445;28;20035;-77
2021/12/31 12:07:33;;;;;;;7.38;2.17;;;15.70;99.90;;;;;;5075518;28;20458;-79
2021/12/31 12:09:58;;;;;;;6.93;2.28;;;15.20;99.90;;;;;;5075356;28;20035;-78
2021/12/31 12:12:28;;;;;;;4.18;2.20;;;15.20;99.90;;;;;;5075765;28;20477;-76
2021/12/31 12:15:21;;;;;;;6.15;2.58;;;15.30;99.90;;;;;;5074272;28;20040;-76
2021/12/31 12:17:47;;;;;;;5.88;2.10;;;15.90;99.90;;;;;;5073595;28;20040;-78
2021/12/31 12:20:18;;;;;;;6.32;2.80;;;15.20;99.90;;;;;;5074985;28;20102;-78
2021/12/31 12:22:50;;;;;;;11.05;2.90;;;14.70;99.90;;;;;;5075400;28;20538;-75
2021/12/31 12:25:21;;;;;;;7.03;2.40;;;14.60;99.90;;;;;;5075475;28;20033;-78
2021/12/31 12:27:51;;;;;;;8.50;2.67;;;14.60;99.90;;;;;;5057130;28;20526;-77
2021/12/31 12:30:19;;;;;;;7.32;2.10;;;14.70;99.90;;;;;;5075457;28;20071;-77
2021/12/31 12:35:12;;;;;;;8.10;2.38;;;14.70;99.90;;;;;;5074809;28;20097;-78
2021/12/31 12:37:38;;;;;;;6.43;2.47;;;14.70;99.90;;;;;;5075052;28;20029;-77
2021/12/31 12:40:05;;;;;;;8.93;3.80;;;14.70;99.90;;;;;;5074882;28;20043;-77
2021/12/31 12:42:30;;;;;;;10.43;2.92;;;14.70;99.90;;;;;;5073836;28;20487;-78
2021/12/31 12:45:04;;;;;;;6.43;2.50;;;14.60;99.90;;;;;;5074921;28;20041;-77
2021/12/31 12:47:30;;;;;;;9.77;2.22;;;14.40;99.90;;;;;;5074985;28;20556;-77